Time;durP1;ratioP1;P1;durP2;ratioP2;P2;SDS_P1;SDS_P2;PMS_P1;PMS_P2;Temp;Humidity;BMP_temperature;BMP_pressure;BME280_temperature;BME280_humidity;BME280_pressure;Samples;Min_cycle;Max_cycle;Signal;HPM_P1;HPM_P2
2022/05/11 00:04:41;;;;;;;22.38;15.07;;;;;;;;;;10477554;28;20794;-80
2022/05/11 00:09:45;;;;;;;20.33;15.85;;;;;;;;;;10481680;28;20915;-80
2022/05/11 00:14:47;;;;;;;23.25;16.50;;;;;;;;;;10486037;28;20411;-81
2022/05/11 00:19:49;;;;;;;20.80;15.37;;;;;;;;;;10486502;28;20429;-80
2022/05/11 00:24:52;;;;;;;24.30;16.23;;;;;;;;;;10486729;28;20406;-80
2022/05/11 00:29:54;;;;;;;19.98;16.02;;;;;;;;;;10485807;28;20532;-81
2022/05/11 00:34:56;;;;;;;20.33;15.70;;;;;;;;;;10522740;28;20489;-81
2022/05/11 00:39:59;;;;;;;19.23;15.32;;;;;;;;;;10522053;28;20487;-79
2022/05/11 00:45:01;;;;;;;21.93;15.73;;;;;;;;;;10485829;28;20402;-80
2022/05/11 00:50:08;;;;;;;21.65;15.98;;;;;;;;;;10484934;28;20422;-80
2022/05/11 00:55:17;;;;;;;19.77;14.85;;;;;;;;;;10484951;28;21100;-80
2022/05/11 01:00:21;;;;;;;21.65;15.05;;;;;;;;;;10485669;28;20406;-81
2022/05/11 01:05:23;;;;;;;20.30;14.73;;;;;;;;;;10484916;28;20420;-81
2022/05/11 01:10:29;;;;;;;18.80;15.50;;;;;;;;;;10485205;28;20426;-81
2022/05/11 01:15:33;;;;;;;18.53;14.83;;;;;;;;;;10485459;28;20477;-81
2022/05/11 01:20:37;;;;;;;19.80;15.83;;;;;;;;;;10488306;28;20409;-81
2022/05/11 01:25:40;;;;;;;20.70;16.33;;;;;;;;;;10484836;28;20409;-82
2022/05/11 01:30:45;;;;;;;20.55;15.73;;;;;;;;;;10499910;28;20459;-82
2022/05/11 01:35:58;;;;;;;21.67;16.15;;;;;;;;;;10519072;28;20500;-82
2022/05/11 01:41:01;;;;;;;18.00;15.60;;;;;;;;;;10484257;28;20394;-81
2022/05/11 01:46:04;;;;;;;20.58;15.93;;;;;;;;;;10484619;28;20410;-80
2022/05/11 01:51:06;;;;;;;19.73;15.30;;;;;;;;;;10484068;28;20945;-80
2022/05/11 01:56:10;;;;;;;22.50;16.17;;;;;;;;;;10483097;28;20398;-81
2022/05/11 02:01:12;;;;;;;23.38;15.50;;;;;;;;;;10489821;28;20407;-81
2022/05/11 02:11:35;;;;;;;20.23;15.93;;;;;;;;;;10501307;28;20404;-80
2022/05/11 02:16:37;;;;;;;26.70;16.30;;;;;;;;;;10501876;28;20400;-80
2022/05/11 02:21:38;;;;;;;21.20;16.23;;;;;;;;;;10501337;28;20392;-80
2022/05/11 02:26:42;;;;;;;20.58;15.90;;;;;;;;;;10501373;28;20475;-80
2022/05/11 02:31:43;;;;;;;23.65;15.57;;;;;;;;;;10499962;28;20423;-80
2022/05/11 02:36:45;;;;;;;23.05;16.08;;;;;;;;;;10501024;28;20411;-81
2022/05/11 02:41:48;;;;;;;20.42;15.80;;;;;;;;;;10500985;28;20474;-81
2022/05/11 02:46:50;;;;;;;23.13;16.48;;;;;;;;;;10500227;28;21378;-80
2022/05/11 02:51:52;;;;;;;24.30;16.50;;;;;;;;;;10499988;28;20420;-81
2022/05/11 02:56:55;;;;;;;20.60;16.00;;;;;;;;;;10504669;28;20456;-83
2022/05/11 03:01:57;;;;;;;18.73;15.75;;;;;;;;;;10499636;28;20414;-81
2022/05/11 03:06:59;;;;;;;24.30;16.42;;;;;;;;;;10500180;28;20397;-82
2022/05/11 03:12:03;;;;;;;19.10;15.35;;;;;;;;;;10502946;28;20820;-83
2022/05/11 03:17:05;;;;;;;19.17;15.98;;;;;;;;;;10499666;28;20894;-82
2022/05/11 03:22:07;;;;;;;23.42;16.17;;;;;;;;;;10499668;28;20884;-81
2022/05/11 03:27:10;;;;;;;22.95;17.25;;;;;;;;;;10501677;28;20402;-82
2022/05/11 03:37:31;;;;;;;23.17;17.53;;;;;;;;;;10499362;28;20728;-82
2022/05/11 03:42:36;;;;;;;23.67;17.50;;;;;;;;;;10501309;28;20384;-81
2022/05/11 03:47:38;;;;;;;23.30;18.02;;;;;;;;;;10508024;28;20412;-82
2022/05/11 03:52:40;;;;;;;24.23;17.93;;;;;;;;;;10511350;28;20442;-82
2022/05/11 03:57:43;;;;;;;25.13;18.80;;;;;;;;;;10506609;28;20400;-82
2022/05/11 04:02:45;;;;;;;25.23;18.15;;;;;;;;;;10509018;28;20400;-82
2022/05/11 04:07:47;;;;;;;27.38;18.23;;;;;;;;;;10512477;28;20422;-83
2022/05/11 04:12:50;;;;;;;24.90;18.83;;;;;;;;;;10522292;28;20393;-82
2022/05/11 04:17:52;;;;;;;27.07;18.57;;;;;;;;;;10492315;28;20405;-82
2022/05/11 04:22:55;;;;;;;25.67;17.60;;;;;;;;;;10496377;28;20402;-82
2022/05/11 04:27:58;;;;;;;24.10;17.48;;;;;;;;;;10495010;28;20518;-82
2022/05/11 04:33:00;;;;;;;22.33;16.95;;;;;;;;;;10496119;28;20404;-82
2022/05/11 04:38:03;;;;;;;22.48;16.48;;;;;;;;;;10494482;28;20884;-82
2022/05/11 04:43:10;;;;;;;24.85;17.60;;;;;;;;;;10523504;28;20488;-82
2022/05/11 04:48:13;;;;;;;23.63;17.23;;;;;;;;;;10524598;28;21282;-82
2022/05/11 04:53:17;;;;;;;22.70;17.10;;;;;;;;;;10499897;28;20404;-82
2022/05/11 04:58:21;;;;;;;23.50;16.33;;;;;;;;;;10490918;28;20473;-83
2022/05/11 05:03:22;;;;;;;21.98;16.27;;;;;;;;;;10482343;28;20414;-83
2022/05/11 05:08:24;;;;;;;20.03;15.63;;;;;;;;;;10480068;28;20422;-83
2022/05/11 05:13:27;;;;;;;23.33;16.45;;;;;;;;;;10480919;28;20406;-83
2022/05/11 05:18:29;;;;;;;20.53;16.17;;;;;;;;;;10485036;28;20909;-83
2022/05/11 05:23:31;;;;;;;22.75;16.35;;;;;;;;;;10489839;28;20878;-83
2022/05/11 05:33:59;;;;;;;18.67;14.90;;;;;;;;;;10496341;28;20395;-83
2022/05/11 05:39:01;;;;;;;20.55;15.55;;;;;;;;;;10484177;28;20406;-82
2022/05/11 05:44:06;;;;;;;22.67;15.40;;;;;;;;;;10481819;28;20731;-83
2022/05/11 05:49:08;;;;;;;16.17;12.93;;;;;;;;;;10489402;28;20504;-85
2022/05/11 05:54:11;;;;;;;20.27;13.18;;;;;;;;;;10482253;28;20873;-83
2022/05/11 05:59:14;;;;;;;17.90;13.32;;;;;;;;;;10486376;28;20426;-83
2022/05/11 06:04:16;;;;;;;19.17;13.00;;;;;;;;;;10495806;28;20410;-83
2022/05/11 06:09:18;;;;;;;17.52;12.82;;;;;;;;;;10513624;28;20515;-84
2022/05/11 06:14:21;;;;;;;17.93;12.97;;;;;;;;;;10517429;28;20429;-84
2022/05/11 06:19:23;;;;;;;18.55;13.25;;;;;;;;;;10516666;28;20445;-83
2022/05/11 06:24:27;;;;;;;21.02;13.20;;;;;;;;;;10515843;28;20419;-83
2022/05/11 06:29:31;;;;;;;18.33;13.23;;;;;;;;;;10481091;28;20506;-83
2022/05/11 06:34:33;;;;;;;19.92;13.98;;;;;;;;;;10480823;28;20488;-83
2022/05/11 06:39:36;;;;;;;18.10;14.63;;;;;;;;;;10483560;28;20470;-83
2022/05/11 06:44:39;;;;;;;18.60;13.50;;;;;;;;;;10482945;28;20486;-84
2022/05/11 06:49:41;;;;;;;18.17;13.48;;;;;;;;;;10482261;28;20422;-84
2022/05/11 07:00:05;;;;;;;18.80;13.65;;;;;;;;;;10481076;28;20424;-84
2022/05/11 07:05:09;;;;;;;20.02;13.02;;;;;;;;;;10479726;28;20437;-83
2022/05/11 07:10:12;;;;;;;19.70;13.35;;;;;;;;;;10512321;22;20432;-81
2022/05/11 07:15:18;;;;;;;16.85;13.02;;;;;;;;;;10500713;28;20419;-81
2022/05/11 07:20:22;;;;;;;17.10;13.52;;;;;;;;;;10517123;28;20409;-82
2022/05/11 07:25:26;;;;;;;19.17;13.43;;;;;;;;;;10515099;28;20406;-82
2022/05/11 07:30:32;;;;;;;20.75;13.52;;;;;;;;;;10522565;28;20899;-81
2022/05/11 07:35:34;;;;;;;17.83;12.93;;;;;;;;;;10491208;28;20761;-81
2022/05/11 07:40:36;;;;;;;20.02;13.10;;;;;;;;;;10492028;28;20405;-82
2022/05/11 07:45:40;;;;;;;16.23;12.13;;;;;;;;;;10490417;28;20398;-81
2022/05/11 07:50:42;;;;;;;18.70;13.15;;;;;;;;;;10492741;28;20776;-81
2022/05/11 07:55:44;;;;;;;18.70;12.90;;;;;;;;;;10491769;28;20394;-81
2022/05/11 08:00:48;;;;;;;15.85;12.90;;;;;;;;;;10496184;28;20400;-82
2022/05/11 08:05:49;;;;;;;19.20;14.13;;;;;;;;;;10489708;28;20408;-81
2022/05/11 08:10:51;;;;;;;18.45;13.18;;;;;;;;;;10488391;28;20438;-82
2022/05/11 08:15:54;;;;;;;16.73;13.30;;;;;;;;;;10491968;28;20403;-82
2022/05/11 08:20:56;;;;;;;17.80;13.33;;;;;;;;;;10519917;28;20403;-82
2022/05/11 08:25:58;;;;;;;17.70;12.33;;;;;;;;;;10519906;28;20495;-80
2022/05/11 08:36:24;;;;;;;17.60;13.05;;;;;;;;;;10489407;28;20396;-82
2022/05/11 08:41:30;;;;;;;15.82;12.43;;;;;;;;;;10491804;28;20412;-81
2022/05/11 08:46:51;;;;;;;18.20;13.17;;;;;;;;;;10518556;28;20399;-81
2022/05/11 08:52:00;;;;;;;19.87;13.17;;;;;;;;;;10509232;28;20501;-83
2022/05/11 08:57:06;;;;;;;16.45;11.98;;;;;;;;;;10517812;28;20431;-82
2022/05/11 09:02:22;;;;;;;17.05;12.52;;;;;;;;;;10504866;28;21236;-82
2022/05/11 09:07:24;;;;;;;18.85;13.38;;;;;;;;;;10489291;28;20410;-81
2022/05/11 09:12:26;;;;;;;19.25;12.00;;;;;;;;;;10489673;28;20417;-82
2022/05/11 09:17:32;;;;;;;17.88;12.38;;;;;;;;;;10501676;28;20422;-82
2022/05/11 09:22:37;;;;;;;17.70;12.40;;;;;;;;;;10510405;28;20524;-81
2022/05/11 09:27:39;;;;;;;16.48;12.27;;;;;;;;;;10487520;28;20911;-81
2022/05/11 09:32:44;;;;;;;16.10;11.23;;;;;;;;;;10488799;28;20428;-81
2022/05/11 09:37:55;;;;;;;11.70;9.87;;;;;;;;;;10489312;28;20402;-82
2022/05/11 09:42:59;;;;;;;16.37;10.77;;;;;;;;;;10490919;28;20496;-81
2022/05/11 09:48:07;;;;;;;19.30;11.00;;;;;;;;;;10514158;28;20393;-83
2022/05/11 09:53:26;;;;;;;15.87;11.60;;;;;;;;;;10488037;28;20414;-82
2022/05/11 09:58:32;;;;;;;11.77;8.43;;;;;;;;;;10513378;28;20520;-81
2022/05/11 10:03:35;;;;;;;12.63;8.57;;;;;;;;;;10492406;28;20398;-82
2022/05/11 10:08:43;;;;;;;13.47;9.53;;;;;;;;;;10506123;28;20624;-81
2022/05/11 10:13:51;;;;;;;12.45;8.23;;;;;;;;;;10512331;28;20396;-82
2022/05/11 10:24:56;;;;;;;14.05;8.90;;;;;;;;;;10472609;28;20390;-82
2022/05/11 10:30:08;;;;;;;12.23;8.48;;;;;;;;;;10487504;28;20426;-81
2022/05/11 10:35:14;;;;;;;14.97;7.43;;;;;;;;;;10487790;28;20417;-83
2022/05/11 10:40:26;;;;;;;9.80;7.37;;;;;;;;;;10488440;28;20473;-83
2022/05/11 10:45:35;;;;;;;11.03;7.27;;;;;;;;;;10488387;28;20770;-82
2022/05/11 10:50:53;;;;;;;16.25;7.22;;;;;;;;;;10487755;28;20922;-81
2022/05/11 10:56:07;;;;;;;13.93;8.00;;;;;;;;;;10495282;28;20404;-83
2022/05/11 11:01:11;;;;;;;13.65;7.50;;;;;;;;;;10488482;28;20505;-83
2022/05/11 11:11:54;;;;;;;13.00;7.60;;;;;;;;;;10495338;28;20416;-82
2022/05/11 11:16:57;;;;;;;15.13;7.63;;;;;;;;;;10497153;28;20912;-83
2022/05/11 11:22:03;;;;;;;13.90;7.53;;;;;;;;;;10501892;28;20502;-82
2022/05/11 11:27:08;;;;;;;10.60;7.25;;;;;;;;;;10496662;28;21043;-83
2022/05/11 11:32:13;;;;;;;14.27;7.90;;;;;;;;;;10498227;28;20416;-82
2022/05/11 11:37:47;;;;;;;13.32;7.68;;;;;;;;;;10501434;28;20958;-82
2022/05/11 11:42:51;;;;;;;11.70;7.40;;;;;;;;;;10480887;28;21008;-82
2022/05/11 11:48:01;;;;;;;11.07;6.45;;;;;;;;;;10496006;28;20980;-82
2022/05/11 11:53:11;;;;;;;10.10;6.75;;;;;;;;;;10504512;28;20661;-82
2022/05/11 11:58:21;;;;;;;11.47;6.43;;;;;;;;;;10504660;28;20788;-83
2022/05/11 12:03:27;;;;;;;9.88;6.43;;;;;;;;;;10508372;28;20430;-81
2022/05/11 12:19:18;;;;;;;10.03;6.63;;;;;;;;;;10515826;28;20415;-82
2022/05/11 12:24:24;;;;;;;7.82;6.50;;;;;;;;;;10507260;28;20483;-83
2022/05/11 12:34:47;;;;;;;9.55;6.60;;;;;;;;;;10460703;28;20960;-82
2022/05/11 12:39:55;;;;;;;9.68;6.50;;;;;;;;;;10428779;28;20410;-82
2022/05/11 12:44:58;;;;;;;9.27;6.50;;;;;;;;;;10430464;28;20461;-83
2022/05/11 12:50:00;;;;;;;11.33;6.57;;;;;;;;;;10425164;28;20422;-83
2022/05/11 12:55:04;;;;;;;8.93;6.57;;;;;;;;;;10431002;28;20486;-83
2022/05/11 13:00:17;;;;;;;10.23;6.67;;;;;;;;;;10425116;28;20433;-81
2022/05/11 13:05:21;;;;;;;10.13;6.83;;;;;;;;;;10428717;28;20759;-82
2022/05/11 13:10:29;;;;;;;8.73;6.63;;;;;;;;;;10430843;28;20408;-83
2022/05/11 13:15:36;;;;;;;10.80;6.70;;;;;;;;;;10425290;28;20403;-82
2022/05/11 13:20:40;;;;;;;11.23;6.63;;;;;;;;;;10418031;28;20437;-82
2022/05/11 13:25:48;;;;;;;8.18;6.00;;;;;;;;;;10418156;28;20546;-83
2022/05/11 13:30:54;;;;;;;10.13;6.30;;;;;;;;;;10422607;28;20403;-83
2022/05/11 13:36:10;;;;;;;10.50;6.43;;;;;;;;;;10422159;28;20880;-83
2022/05/11 13:41:17;;;;;;;9.90;6.70;;;;;;;;;;10425055;28;20424;-83
2022/05/11 13:46:35;;;;;;;8.48;6.32;;;;;;;;;;10431408;28;20409;-82
2022/05/11 13:51:42;;;;;;;9.65;6.15;;;;;;;;;;10453539;28;20692;-83
2022/05/11 13:56:57;;;;;;;12.00;6.87;;;;;;;;;;10452776;28;20404;-81
2022/05/11 14:02:01;;;;;;;9.52;6.82;;;;;;;;;;10454518;28;20422;-83
2022/05/11 14:07:07;;;;;;;10.27;6.57;;;;;;;;;;10454282;28;20430;-83
2022/05/11 14:12:10;;;;;;;11.57;6.97;;;;;;;;;;10450028;28;20418;-81
2022/05/11 14:17:18;;;;;;;11.23;6.90;;;;;;;;;;10452094;28;20426;-81
2022/05/11 14:22:20;;;;;;;9.55;6.53;;;;;;;;;;10449533;28;20432;-82
2022/05/11 14:27:22;;;;;;;8.03;6.23;;;;;;;;;;10447201;28;20402;-79
2022/05/11 14:32:28;;;;;;;8.35;6.68;;;;;;;;;;10450752;28;20410;-82
2022/05/11 14:37:30;;;;;;;7.13;5.70;;;;;;;;;;10450932;28;20407;-83
2022/05/11 14:42:33;;;;;;;12.52;6.28;;;;;;;;;;10452403;28;20429;-82
2022/05/11 14:47:37;;;;;;;13.38;6.93;;;;;;;;;;10452736;28;20408;-82
2022/05/11 14:52:39;;;;;;;11.23;5.83;;;;;;;;;;10447312;28;20410;-82
2022/05/11 15:03:02;;;;;;;10.02;6.70;;;;;;;;;;10447340;28;20417;-81
2022/05/11 15:08:05;;;;;;;10.57;6.60;;;;;;;;;;10446375;28;20918;-83
2022/05/11 15:18:29;;;;;;;9.73;6.25;;;;;;;;;;10447302;28;20391;-82
2022/05/11 15:23:31;;;;;;;10.02;6.45;;;;;;;;;;10446888;28;20431;-84
2022/05/11 15:28:33;;;;;;;8.67;6.40;;;;;;;;;;10446345;28;20414;-81
2022/05/11 15:33:37;;;;;;;9.27;6.53;;;;;;;;;;10448222;28;20417;-81
2022/05/11 15:38:38;;;;;;;7.82;5.53;;;;;;;;;;10446682;28;20410;-84
2022/05/11 15:43:40;;;;;;;8.55;5.55;;;;;;;;;;10456560;28;20484;-81
2022/05/11 15:48:43;;;;;;;8.18;6.10;;;;;;;;;;10462698;28;20397;-82
2022/05/11 15:53:47;;;;;;;8.63;6.03;;;;;;;;;;10459484;28;20516;-81
2022/05/11 15:58:49;;;;;;;10.68;6.20;;;;;;;;;;10460390;28;20417;-81
2022/05/11 16:03:53;;;;;;;10.70;6.20;;;;;;;;;;10462973;28;20417;-82
2022/05/11 16:08:55;;;;;;;9.60;6.40;;;;;;;;;;10460815;28;20409;-82
2022/05/11 16:13:57;;;;;;;8.97;5.47;;;;;;;;;;10460482;28;20895;-80
2022/05/11 16:24:21;;;;;;;10.47;6.77;;;;;;;;;;10460987;28;20501;-81
2022/05/11 16:29:24;;;;;;;8.23;6.00;;;;;;;;;;10455452;28;20405;-81
2022/05/11 16:34:28;;;;;;;9.60;6.30;;;;;;;;;;10464317;28;20416;-82
2022/05/11 16:39:30;;;;;;;9.68;5.70;;;;;;;;;;10460815;28;20424;-83
2022/05/11 16:44:34;;;;;;;8.33;6.00;;;;;;;;;;10452340;28;20781;-82
2022/05/11 16:49:38;;;;;;;8.23;5.43;;;;;;;;;;10464169;28;20416;-82
2022/05/11 16:54:40;;;;;;;8.65;5.63;;;;;;;;;;10459230;28;20416;-82
2022/05/11 16:59:42;;;;;;;12.98;5.90;;;;;;;;;;10472913;28;20918;-80
2022/05/11 17:04:46;;;;;;;12.75;5.90;;;;;;;;;;10507792;28;20511;-81
2022/05/11 17:09:48;;;;;;;8.73;5.77;;;;;;;;;;10504099;28;20440;-80
2022/05/11 17:14:50;;;;;;;9.25;6.13;;;;;;;;;;10516318;28;20767;-81
2022/05/11 17:19:55;;;;;;;8.48;6.43;;;;;;;;;;10517997;28;20418;-80
2022/05/11 17:24:57;;;;;;;8.15;5.60;;;;;;;;;;10510114;28;20694;-80
2022/05/11 17:29:59;;;;;;;9.32;6.07;;;;;;;;;;10507859;28;20408;-81
2022/05/11 17:35:02;;;;;;;9.03;5.60;;;;;;;;;;10503753;28;20423;-80
2022/05/11 17:40:05;;;;;;;8.65;6.50;;;;;;;;;;10499089;28;20422;-81
2022/05/11 17:45:09;;;;;;;8.20;6.10;;;;;;;;;;10507115;28;20489;-81
2022/05/11 17:50:14;;;;;;;12.10;6.57;;;;;;;;;;10510457;28;20405;-80
2022/05/11 17:55:17;;;;;;;8.47;5.80;;;;;;;;;;10495094;28;20920;-80
2022/05/11 18:00:21;;;;;;;9.70;6.50;;;;;;;;;;10493414;28;20412;-80
2022/05/11 18:05:24;;;;;;;9.85;6.00;;;;;;;;;;10493626;28;20790;-80
2022/05/11 18:10:29;;;;;;;8.43;5.60;;;;;;;;;;10499050;28;20869;-80
2022/05/11 18:15:32;;;;;;;16.65;7.78;;;;;;;;;;10497851;28;20903;-80
2022/05/11 18:20:39;;;;;;;14.02;8.27;;;;;;;;;;10500885;28;20422;-80
2022/05/11 18:25:42;;;;;;;12.80;8.30;;;;;;;;;;10497887;28;21091;-80
2022/05/11 18:30:44;;;;;;;14.87;9.47;;;;;;;;;;10497016;28;20412;-80
2022/05/11 18:35:48;;;;;;;13.47;8.90;;;;;;;;;;10504511;28;20425;-80
2022/05/11 18:40:50;;;;;;;16.05;8.57;;;;;;;;;;10501401;28;20420;-80
2022/05/11 18:45:56;;;;;;;15.88;9.35;;;;;;;;;;10503624;28;20419;-79
2022/05/11 18:51:00;;;;;;;14.85;9.90;;;;;;;;;;10508035;28;20474;-80
2022/05/11 18:56:01;;;;;;;13.57;9.55;;;;;;;;;;10504175;28;20915;-82
2022/05/11 19:01:04;;;;;;;18.80;10.50;;;;;;;;;;10506515;28;21358;-81
2022/05/11 19:06:07;;;;;;;19.93;10.37;;;;;;;;;;10506390;28;20416;-82
2022/05/11 19:11:10;;;;;;;14.30;9.73;;;;;;;;;;10493781;28;20416;-82
2022/05/11 19:16:12;;;;;;;18.67;10.27;;;;;;;;;;10491577;28;20421;-84
2022/05/11 19:21:15;;;;;;;19.13;10.63;;;;;;;;;;10501732;28;20417;-81
2022/05/11 19:26:17;;;;;;;17.63;11.30;;;;;;;;;;10502961;28;20753;-81
2022/05/11 19:31:19;;;;;;;15.10;11.48;;;;;;;;;;10498762;28;20410;-82
2022/05/11 19:36:22;;;;;;;18.60;12.23;;;;;;;;;;10507321;28;20431;-81
2022/05/11 19:41:24;;;;;;;20.40;13.07;;;;;;;;;;10503050;28;20761;-80
2022/05/11 19:46:27;;;;;;;17.75;13.50;;;;;;;;;;10508486;28;20408;-80
2022/05/11 19:51:31;;;;;;;17.13;13.35;;;;;;;;;;10506968;28;20916;-80
2022/05/11 19:56:33;;;;;;;20.60;14.27;;;;;;;;;;10503652;28;20427;-82
2022/05/11 20:01:36;;;;;;;18.60;13.55;;;;;;;;;;10505899;28;20416;-81
2022/05/11 20:06:39;;;;;;;19.33;13.30;;;;;;;;;;10500080;28;20406;-81
2022/05/11 20:11:41;;;;;;;19.80;13.95;;;;;;;;;;10503607;28;20764;-81
2022/05/11 20:16:44;;;;;;;19.02;13.85;;;;;;;;;;10495395;28;20920;-82
2022/05/11 20:21:47;;;;;;;19.60;13.60;;;;;;;;;;10499665;28;20418;-81
2022/05/11 20:26:50;;;;;;;22.80;14.98;;;;;;;;;;10507461;28;20416;-81
2022/05/11 20:37:12;;;;;;;18.03;14.30;;;;;;;;;;10504345;28;20408;-81
2022/05/11 20:42:14;;;;;;;19.38;14.77;;;;;;;;;;10519915;28;20951;-82
2022/05/11 20:47:16;;;;;;;19.98;14.15;;;;;;;;;;10512815;28;20749;-82
2022/05/11 20:52:21;;;;;;;17.63;14.30;;;;;;;;;;10514230;28;20412;-81
2022/05/11 20:57:22;;;;;;;18.23;14.73;;;;;;;;;;10510696;28;20410;-81
2022/05/11 21:02:24;;;;;;;21.33;14.90;;;;;;;;;;10514111;28;20424;-81
2022/05/11 21:07:27;;;;;;;18.63;15.38;;;;;;;;;;10513655;28;20416;-81
2022/05/11 21:12:29;;;;;;;21.20;15.00;;;;;;;;;;10496919;28;20409;-80
2022/05/11 21:17:31;;;;;;;19.52;14.70;;;;;;;;;;10496946;28;20420;-81
2022/05/11 21:22:34;;;;;;;20.25;15.75;;;;;;;;;;10487513;28;20430;-81
2022/05/11 21:27:36;;;;;;;22.55;16.17;;;;;;;;;;10501448;28;20408;-82
2022/05/11 21:32:38;;;;;;;20.77;16.70;;;;;;;;;;10509818;28;20973;-83
2022/05/11 21:37:42;;;;;;;23.95;16.25;;;;;;;;;;10507185;28;20414;-82
2022/05/11 21:42:45;;;;;;;27.00;17.23;;;;;;;;;;10502726;28;20502;-82
2022/05/11 21:47:47;;;;;;;24.40;17.60;;;;;;;;;;10487885;28;20416;-82
2022/05/11 21:52:51;;;;;;;21.90;17.13;;;;;;;;;;10499734;28;20405;-83
2022/05/11 21:57:53;;;;;;;21.48;17.98;;;;;;;;;;10505129;28;20416;-82
2022/05/11 22:02:56;;;;;;;25.10;18.45;;;;;;;;;;10517705;28;20798;-80
2022/05/11 22:08:01;;;;;;;24.30;18.42;;;;;;;;;;10518395;28;20414;-82
2022/05/11 22:13:02;;;;;;;22.43;18.30;;;;;;;;;;10518459;28;20396;-80
2022/05/11 22:18:05;;;;;;;24.93;18.90;;;;;;;;;;10515157;28;20794;-81
2022/05/11 22:23:08;;;;;;;26.00;19.48;;;;;;;;;;10518235;28;20428;-81
2022/05/11 22:28:10;;;;;;;26.40;19.42;;;;;;;;;;10501479;28;20397;-81
2022/05/11 22:33:13;;;;;;;27.80;19.85;;;;;;;;;;10502017;28;20392;-82
2022/05/11 22:38:18;;;;;;;25.97;20.00;;;;;;;;;;10501982;28;20392;-82
2022/05/11 22:43:20;;;;;;;26.17;19.20;;;;;;;;;;10501597;28;20840;-82
2022/05/11 22:48:22;;;;;;;26.17;19.30;;;;;;;;;;10500962;28;20479;-82
2022/05/11 22:53:27;;;;;;;25.60;19.95;;;;;;;;;;10501535;28;20388;-81
2022/05/11 22:58:29;;;;;;;27.25;21.02;;;;;;;;;;10502936;28;20722;-82
2022/05/11 23:03:31;;;;;;;25.60;21.23;;;;;;;;;;10492335;28;20514;-82
2022/05/11 23:08:37;;;;;;;30.60;22.85;;;;;;;;;;10500307;28;20408;-81
2022/05/11 23:13:38;;;;;;;25.95;22.80;;;;;;;;;;10501540;28;20487;-80
2022/05/11 23:18:40;;;;;;;29.67;23.48;;;;;;;;;;10500663;28;20407;-82
2022/05/11 23:23:43;;;;;;;30.42;22.67;;;;;;;;;;10500394;28;21198;-81
2022/05/11 23:28:45;;;;;;;26.80;21.93;;;;;;;;;;10501316;28;20394;-81
2022/05/11 23:33:47;;;;;;;26.53;21.70;;;;;;;;;;10500360;28;20394;-82
2022/05/11 23:38:50;;;;;;;27.53;21.37;;;;;;;;;;10500124;28;20416;-82
2022/05/11 23:43:52;;;;;;;27.33;20.73;;;;;;;;;;10499749;28;20507;-81
2022/05/11 23:48:54;;;;;;;28.25;21.27;;;;;;;;;;10498850;28;20830;-81
2022/05/11 23:53:57;;;;;;;26.27;21.25;;;;;;;;;;10497805;28;20513;-81
2022/05/11 23:58:59;;;;;;;25.17;19.85;;;;;;;;;;10498308;28;20929;-81
